createdAt,value
2019-03-20T00:00:09.771Z,-2.21
2019-03-20T00:01:09.733Z,-2.43
2019-03-20T00:02:09.722Z,-2.24
2019-03-20T00:03:09.718Z,-2.35
2019-03-20T00:04:09.700Z,-2.34
2019-03-20T00:05:09.687Z,-2.15
2019-03-20T00:06:09.689Z,-2.19
2019-03-20T00:07:09.669Z,-2.12
2019-03-20T00:08:09.658Z,-2.19
2019-03-20T00:09:09.654Z,-2.16
2019-03-20T00:10:09.649Z,-2.26
2019-03-20T00:11:09.649Z,-2.24
2019-03-20T00:12:09.617Z,-2.29
2019-03-20T00:13:09.605Z,-2.24
2019-03-20T00:14:09.595Z,-2.22
2019-03-20T00:15:09.585Z,-2.30
2019-03-20T00:16:09.591Z,-2.26
2019-03-20T00:17:09.568Z,-2.24
2019-03-20T00:18:09.611Z,-2.26
2019-03-20T00:19:09.573Z,-2.38
2019-03-20T00:20:09.555Z,-2.35
2019-03-20T00:21:09.534Z,-2.35
2019-03-20T00:22:09.518Z,-2.38
2019-03-20T00:23:09.549Z,-2.35
2019-03-20T00:24:09.498Z,-2.35
2019-03-20T00:25:09.482Z,-2.38
2019-03-20T00:26:09.502Z,-2.48
2019-03-20T00:27:09.461Z,-2.43
2019-03-20T00:28:09.449Z,-2.45
2019-03-20T00:29:09.452Z,-2.38
2019-03-20T00:30:09.429Z,-2.48
2019-03-20T00:31:09.446Z,-2.48
2019-03-20T00:32:09.405Z,-2.46
2019-03-20T00:33:09.396Z,-2.43
2019-03-20T00:34:09.390Z,-2.46
2019-03-20T00:35:09.385Z,-2.56
2019-03-20T00:36:09.418Z,-2.51
2019-03-20T00:37:09.382Z,-2.48
2019-03-20T00:38:09.344Z,-2.48
2019-03-20T00:39:09.337Z,-2.52
2019-03-20T00:40:09.366Z,-2.41
2019-03-20T00:41:09.318Z,-2.35
2019-03-20T00:42:09.322Z,-2.46
2019-03-20T00:43:09.298Z,-2.48
2019-03-20T00:44:09.285Z,-2.51
2019-03-20T00:45:09.276Z,-2.48
2019-03-20T00:46:09.268Z,-2.56
2019-03-20T00:47:09.264Z,-2.54
2019-03-20T00:48:09.238Z,-2.52
2019-03-20T00:49:09.240Z,-2.55
2019-03-20T00:50:09.218Z,-2.59
2019-03-20T00:51:09.204Z,-2.54
2019-03-20T00:52:09.208Z,-2.56
2019-03-20T00:53:09.186Z,-2.54
2019-03-20T00:54:09.184Z,-2.56
2019-03-20T00:55:09.214Z,-2.48
2019-03-20T00:56:09.160Z,-2.51
2019-03-20T00:57:09.158Z,-2.49
2019-03-20T00:58:09.142Z,-2.56
2019-03-20T00:59:09.125Z,-2.55
2019-03-20T01:00:09.192Z,-2.56
2019-03-20T01:01:09.116Z,-2.43
2019-03-20T01:02:09.102Z,-2.40
2019-03-20T01:03:09.087Z,-2.54
2019-03-20T01:04:09.076Z,-2.51
2019-03-20T01:05:12.848Z,-2.51
2019-03-20T01:06:09.055Z,-2.49
2019-03-20T01:07:10.181Z,-2.46
2019-03-20T01:08:09.033Z,-2.54
2019-03-20T01:09:09.022Z,-2.51
2019-03-20T01:10:09.014Z,-2.49
2019-03-20T01:11:09.057Z,-2.51
2019-03-20T01:12:09.003Z,-2.55
2019-03-20T01:13:09.011Z,-2.55
2019-03-20T01:14:08.971Z,-2.64
2019-03-20T01:15:08.980Z,-2.61
2019-03-20T01:16:08.950Z,-2.66
2019-03-20T01:17:08.981Z,-2.70
2019-03-20T01:18:08.943Z,-2.72
2019-03-20T01:19:08.913Z,-2.63
2019-03-20T01:20:08.919Z,-2.61
2019-03-20T01:21:08.890Z,-2.72
2019-03-20T01:22:08.881Z,-2.66
2019-03-20T01:23:08.893Z,-2.66
2019-03-20T01:24:08.907Z,-2.69
2019-03-20T01:25:08.859Z,-2.67
2019-03-20T01:26:08.841Z,-2.72
2019-03-20T01:27:08.847Z,-2.72
2019-03-20T01:28:08.855Z,-2.67
2019-03-20T01:29:08.807Z,-2.79
2019-03-20T01:30:08.807Z,-2.76
2019-03-20T01:31:08.791Z,-2.84
2019-03-20T01:32:08.827Z,-2.85
2019-03-20T01:33:08.908Z,-2.79
2019-03-20T01:34:08.762Z,-2.77
2019-03-20T01:35:08.759Z,-2.79
2019-03-20T01:36:08.758Z,-2.85
2019-03-20T01:37:08.731Z,-2.87
2019-03-20T01:38:08.741Z,-2.80
2019-03-20T01:39:08.711Z,-2.90
2019-03-20T01:40:08.721Z,-2.79
2019-03-20T01:41:08.699Z,-2.90
2019-03-20T01:42:08.671Z,-2.85
2019-03-20T01:43:08.670Z,-2.90
2019-03-20T01:44:08.660Z,-2.91
2019-03-20T01:45:08.707Z,-2.88
2019-03-20T01:46:08.629Z,-2.91
2019-03-20T01:47:08.619Z,-2.87
2019-03-20T01:48:08.607Z,-2.84
2019-03-20T01:49:08.616Z,-2.90
2019-03-20T01:50:08.585Z,-2.94
2019-03-20T01:51:08.581Z,-2.95
2019-03-20T01:52:08.615Z,-2.95
2019-03-20T01:53:08.573Z,-2.92
2019-03-20T01:54:08.564Z,-2.92
2019-03-20T01:55:08.533Z,-3.01
2019-03-20T01:56:08.535Z,-2.91
2019-03-20T01:57:08.513Z,-2.98
2019-03-20T01:58:08.502Z,-2.94
2019-03-20T01:59:08.514Z,-2.98
2019-03-20T02:00:08.526Z,-3.05
2019-03-20T02:01:08.482Z,-3.10
2019-03-20T02:02:08.468Z,-3.09
2019-03-20T02:03:08.462Z,-3.06
2019-03-20T02:04:08.466Z,-3.12
2019-03-20T02:05:08.435Z,-3.12
2019-03-20T02:06:08.482Z,-3.15
2019-03-20T02:07:08.408Z,-3.15
2019-03-20T02:08:08.411Z,-3.16
2019-03-20T02:09:08.396Z,-3.13
2019-03-20T02:10:08.382Z,-3.12
2019-03-20T02:11:08.432Z,-3.13
2019-03-20T02:12:08.358Z,-3.18
2019-03-20T02:13:08.356Z,-3.13
2019-03-20T02:14:08.356Z,-3.20
2019-03-20T02:15:08.326Z,-3.21
2019-03-20T02:16:08.324Z,-3.21
2019-03-20T02:17:08.319Z,-3.18
2019-03-20T02:18:08.308Z,-3.18
2019-03-20T02:19:08.318Z,-3.15
2019-03-20T02:20:08.280Z,-3.18
2019-03-20T02:21:08.272Z,-3.12
2019-03-20T02:22:08.319Z,-3.13
2019-03-20T02:23:08.248Z,-3.24
2019-03-20T02:24:08.250Z,-3.15
2019-03-20T02:25:08.224Z,-3.18
2019-03-20T02:26:08.218Z,-3.15
2019-03-20T02:27:08.209Z,-3.23
2019-03-20T02:28:08.194Z,-3.27
2019-03-20T02:29:08.210Z,-3.23
2019-03-20T02:30:08.172Z,-3.26
2019-03-20T02:31:08.166Z,-3.23
2019-03-20T02:32:08.208Z,-3.26
2019-03-20T02:33:08.146Z,-3.26
2019-03-20T02:34:08.133Z,-3.27
2019-03-20T02:35:08.131Z,-3.26
2019-03-20T02:36:08.104Z,-3.21
2019-03-20T02:37:08.109Z,-3.24
2019-03-20T02:38:08.109Z,-3.16
2019-03-20T02:39:08.076Z,-3.18
2019-03-20T02:40:08.095Z,-3.12
2019-03-20T02:41:08.054Z,-3.18
2019-03-20T02:42:08.042Z,-3.26
2019-03-20T02:43:08.033Z,-3.24
2019-03-20T02:44:08.067Z,-3.26
2019-03-20T02:45:08.033Z,-3.30
2019-03-20T02:46:08.012Z,-3.41
2019-03-20T02:47:08.005Z,-3.27
2019-03-20T02:48:08.029Z,-3.38
2019-03-20T02:49:07.975Z,-3.39
2019-03-20T02:50:08.040Z,-3.30
2019-03-20T02:51:07.959Z,-3.26
2019-03-20T02:52:07.942Z,-3.34
2019-03-20T02:53:07.956Z,-3.33
2019-03-20T02:54:07.948Z,-3.27
2019-03-20T02:55:07.938Z,-3.47
2019-03-20T02:56:07.909Z,-3.41
2019-03-20T02:57:07.897Z,-3.47
2019-03-20T02:58:07.884Z,-3.45
2019-03-20T02:59:07.871Z,-3.42
2019-03-20T03:00:07.910Z,-3.42
2019-03-20T03:01:07.842Z,-3.39
2019-03-20T03:02:07.834Z,-3.44
2019-03-20T03:03:07.852Z,-3.31
2019-03-20T03:04:07.870Z,-3.33
2019-03-20T03:05:07.812Z,-3.29
2019-03-20T03:06:07.922Z,-3.24
2019-03-20T03:07:07.870Z,-3.31
2019-03-20T03:08:07.771Z,-3.26
2019-03-20T03:09:07.787Z,-3.34
2019-03-20T03:10:07.769Z,-3.30
2019-03-20T03:11:07.774Z,-3.33
2019-03-20T03:12:07.729Z,-3.42
2019-03-20T03:13:07.725Z,-3.42
2019-03-20T03:14:07.771Z,-3.44
2019-03-20T03:15:07.710Z,-3.44
2019-03-20T03:16:07.708Z,-3.39
2019-03-20T03:17:07.684Z,-3.44
2019-03-20T03:18:07.749Z,-3.45
2019-03-20T03:19:07.660Z,-3.42
2019-03-20T03:20:07.655Z,-3.38
2019-03-20T03:21:07.647Z,-3.41
2019-03-20T03:22:07.624Z,-3.39
2019-03-20T03:23:07.626Z,-3.45
2019-03-20T03:24:07.608Z,-3.44
2019-03-20T03:25:07.595Z,-3.48
2019-03-20T03:26:07.606Z,-3.47
2019-03-20T03:27:07.671Z,-3.45
2019-03-20T03:28:07.569Z,-3.51
2019-03-20T03:29:07.551Z,-3.38
2019-03-20T03:30:07.562Z,-3.49
2019-03-20T03:31:07.559Z,-3.49
2019-03-20T03:32:07.531Z,-3.41
2019-03-20T03:33:07.515Z,-3.34
2019-03-20T03:34:07.574Z,-3.33
2019-03-20T03:35:07.509Z,-3.38
2019-03-20T03:36:20.540Z,-3.39
2019-03-20T03:37:08.497Z,-3.45
2019-03-20T03:38:07.458Z,-3.36
2019-03-20T03:39:07.454Z,-3.48
2019-03-20T03:40:07.458Z,-3.44
2019-03-20T03:41:07.426Z,-3.44
2019-03-20T03:42:07.442Z,-3.44
2019-03-20T03:43:07.415Z,-3.45
2019-03-20T03:44:07.394Z,-3.41
2019-03-20T03:45:07.390Z,-3.51
2019-03-20T03:46:07.445Z,-3.41
2019-03-20T03:47:07.382Z,-3.39
2019-03-20T03:48:07.362Z,-3.34
2019-03-20T03:49:07.382Z,-3.39
2019-03-20T03:50:07.336Z,-3.41
2019-03-20T03:51:07.332Z,-3.44
2019-03-20T03:52:07.329Z,-3.51
2019-03-20T03:53:07.306Z,-3.45
2019-03-20T03:54:07.292Z,-3.47
2019-03-20T03:55:07.343Z,-3.48
2019-03-20T03:56:07.276Z,-3.48
2019-03-20T03:57:07.278Z,-3.48
2019-03-20T03:58:07.249Z,-3.42
2019-03-20T03:59:07.239Z,-3.49
2019-03-20T04:00:07.241Z,-3.47
2019-03-20T04:01:07.228Z,-3.48
2019-03-20T04:02:07.282Z,-3.48
2019-03-20T04:03:07.203Z,-3.54
2019-03-20T04:04:07.196Z,-3.38
2019-03-20T04:05:07.181Z,-3.41
2019-03-20T04:06:07.175Z,-3.48
2019-03-20T04:07:07.183Z,-3.49
2019-03-20T04:08:07.158Z,-3.51
2019-03-20T04:09:07.141Z,-3.52
2019-03-20T04:10:07.133Z,-3.52
2019-03-20T04:11:07.230Z,-3.57
2019-03-20T04:12:07.171Z,-3.45
2019-03-20T04:13:07.094Z,-3.51
2019-03-20T04:14:07.079Z,-3.48
2019-03-20T04:15:07.075Z,-3.54
2019-03-20T04:16:07.066Z,-3.60
2019-03-20T04:17:07.073Z,-3.49
2019-03-20T04:18:07.044Z,-3.51
2019-03-20T04:19:07.032Z,-3.59
2019-03-20T04:20:07.025Z,-3.44
2019-03-20T04:21:07.057Z,-3.57
2019-03-20T04:22:06.997Z,-3.54
2019-03-20T04:23:07.012Z,-3.55
2019-03-20T04:24:06.982Z,-3.57
2019-03-20T04:25:06.968Z,-3.45
2019-03-20T04:26:06.958Z,-3.49
2019-03-20T04:27:07.002Z,-3.51
2019-03-20T04:28:06.966Z,-3.45
2019-03-20T04:29:06.923Z,-3.51
2019-03-20T04:30:06.917Z,-3.54
2019-03-20T04:31:06.964Z,-3.55
2019-03-20T04:32:06.900Z,-3.66
2019-03-20T04:33:06.911Z,-3.62
2019-03-20T04:34:06.868Z,-3.72
2019-03-20T04:35:06.863Z,-3.70
2019-03-20T04:36:06.877Z,-3.70
2019-03-20T04:37:06.847Z,-3.77
2019-03-20T04:38:06.851Z,-3.74
2019-03-20T04:39:06.820Z,-3.67
2019-03-20T04:40:06.860Z,-3.82
2019-03-20T04:41:06.799Z,-3.74
2019-03-20T04:42:06.787Z,-3.70
2019-03-20T04:43:06.791Z,-3.74
2019-03-20T04:44:06.773Z,-3.78
2019-03-20T04:45:06.756Z,-3.81
2019-03-20T04:46:06.773Z,-3.79
2019-03-20T04:47:06.741Z,-3.69
2019-03-20T04:48:06.745Z,-3.70
2019-03-20T04:49:06.715Z,-3.69
2019-03-20T04:50:06.708Z,-3.70
2019-03-20T04:51:06.697Z,-3.77
2019-03-20T04:52:06.689Z,-3.74
2019-03-20T04:53:06.710Z,-3.78
2019-03-20T04:54:06.661Z,-3.70
2019-03-20T04:55:06.661Z,-3.78
2019-03-20T04:56:06.657Z,-3.82
2019-03-20T04:57:06.637Z,-3.81
2019-03-20T04:58:06.629Z,-3.78
2019-03-20T04:59:06.654Z,-3.85
2019-03-20T05:00:06.603Z,-3.81
2019-03-20T05:01:06.588Z,-3.85
2019-03-20T05:02:06.584Z,-3.84
2019-03-20T05:03:06.567Z,-3.82
2019-03-20T05:04:06.582Z,-3.87
2019-03-20T05:05:06.553Z,-3.87
2019-03-20T05:06:06.545Z,-3.85
2019-03-20T05:07:06.560Z,-3.88
2019-03-20T05:08:06.516Z,-3.94
2019-03-20T05:09:06.531Z,-3.82
2019-03-20T05:10:06.497Z,-3.84
2019-03-20T05:11:06.487Z,-3.81
2019-03-20T05:12:06.492Z,-3.88
2019-03-20T05:13:06.462Z,-3.87
2019-03-20T05:14:06.467Z,-3.79
2019-03-20T05:15:06.446Z,-3.79
2019-03-20T05:16:06.432Z,-3.85
2019-03-20T05:17:06.453Z,-3.85
2019-03-20T05:18:06.420Z,-3.72
2019-03-20T05:19:06.481Z,-3.72
2019-03-20T05:20:06.388Z,-3.82
2019-03-20T05:21:06.390Z,-3.77
2019-03-20T05:22:06.422Z,-3.78
2019-03-20T05:23:08.458Z,-3.79
2019-03-20T05:24:06.358Z,-3.79
2019-03-20T05:25:06.351Z,-3.77
2019-03-20T05:26:06.340Z,-3.82
2019-03-20T05:27:06.316Z,-3.72
2019-03-20T05:28:06.312Z,-3.67
2019-03-20T05:29:06.408Z,-3.65
2019-03-20T05:30:06.307Z,-3.65
2019-03-20T05:31:06.273Z,-3.52
2019-03-20T05:32:06.275Z,-3.57
2019-03-20T05:33:06.268Z,-3.45
2019-03-20T05:34:06.260Z,-3.42
2019-03-20T05:35:06.231Z,-3.49
2019-03-20T05:36:06.226Z,-3.51
2019-03-20T05:37:10.621Z,-3.38
2019-03-20T05:38:06.222Z,-3.44
2019-03-20T05:39:06.200Z,-3.49
2019-03-20T05:40:06.196Z,-3.36
2019-03-20T05:41:06.169Z,-3.26
2019-03-20T05:42:06.158Z,-3.24
2019-03-20T05:43:06.152Z,-3.24
2019-03-20T05:44:06.162Z,-3.15
2019-03-20T05:45:06.142Z,-3.21
2019-03-20T05:46:06.117Z,-3.16
2019-03-20T05:47:06.106Z,-3.06
2019-03-20T05:48:06.094Z,-3.02
2019-03-20T05:49:06.104Z,-2.95
2019-03-20T05:50:06.079Z,-2.94
2019-03-20T05:51:06.064Z,-2.84
2019-03-20T05:52:06.059Z,-2.94
2019-03-20T05:53:06.077Z,-2.77
2019-03-20T05:54:06.053Z,-2.82
2019-03-20T05:55:06.025Z,-2.79
2019-03-20T05:56:06.018Z,-2.69
2019-03-20T05:57:06.006Z,-2.69
2019-03-20T05:58:06.027Z,-2.64
2019-03-20T05:59:06.003Z,-2.54
2019-03-20T06:00:05.977Z,-2.45
2019-03-20T06:01:05.965Z,-2.51
2019-03-20T06:02:05.949Z,-2.40
2019-03-20T06:03:05.947Z,-2.33
2019-03-20T06:04:05.931Z,-2.22
2019-03-20T06:05:05.939Z,-2.24
2019-03-20T06:06:05.923Z,-2.27
2019-03-20T06:07:05.898Z,-2.15
2019-03-20T06:08:05.891Z,-2.06
2019-03-20T06:09:05.875Z,-2.00
2019-03-20T06:10:05.890Z,-1.97
2019-03-20T06:11:05.873Z,-1.96
2019-03-20T06:12:05.845Z,-1.93
2019-03-20T06:13:05.843Z,-1.88
2019-03-20T06:14:05.821Z,-1.79
2019-03-20T06:15:05.827Z,-1.78
2019-03-20T06:16:05.805Z,-1.78
2019-03-20T06:17:05.816Z,-1.70
2019-03-20T06:18:05.791Z,-1.65
2019-03-20T06:19:05.775Z,-1.55
2019-03-20T06:20:05.774Z,-1.57
2019-03-20T06:21:05.755Z,-1.37
2019-03-20T06:22:05.737Z,-1.34
2019-03-20T06:23:05.745Z,-1.33
2019-03-20T06:24:05.722Z,-1.36
2019-03-20T06:25:05.727Z,-1.25
2019-03-20T06:26:05.702Z,-1.18
2019-03-20T06:27:05.687Z,-1.16
2019-03-20T06:28:05.676Z,-1.07
2019-03-20T06:29:05.674Z,-1.10
2019-03-20T06:30:05.720Z,-1.04
2019-03-20T06:31:05.656Z,-0.90
2019-03-20T06:32:05.644Z,-0.84
2019-03-20T06:33:05.638Z,-0.79
2019-03-20T06:34:05.631Z,-0.78
2019-03-20T06:35:05.623Z,-0.71
2019-03-20T06:36:05.596Z,-0.63
2019-03-20T06:37:05.632Z,-0.55
2019-03-20T06:38:05.574Z,-0.43
2019-03-20T06:39:05.566Z,-0.32
2019-03-20T06:40:05.584Z,-0.21
2019-03-20T06:41:05.544Z,-0.21
2019-03-20T06:42:05.527Z,-0.11
2019-03-20T06:43:05.524Z,0.00
2019-03-20T06:44:05.512Z,0.07
2019-03-20T06:45:05.502Z,0.26
2019-03-20T06:46:05.509Z,0.30
2019-03-20T06:47:05.478Z,0.30
2019-03-20T06:48:05.465Z,0.41
2019-03-20T06:49:07.767Z,0.41
2019-03-20T06:50:05.502Z,0.51
2019-03-20T06:51:05.448Z,0.56
2019-03-20T06:52:05.764Z,0.64
2019-03-20T06:53:13.970Z,0.73
2019-03-20T06:54:05.406Z,0.76
2019-03-20T06:55:05.392Z,0.90
2019-03-20T06:56:05.684Z,0.96
2019-03-20T06:57:05.372Z,1.08
2019-03-20T06:58:05.368Z,1.17
2019-03-20T06:59:05.350Z,1.24
2019-03-20T07:00:05.588Z,1.38
2019-03-20T07:01:05.343Z,1.45
2019-03-20T07:02:05.314Z,1.53
2019-03-20T07:03:05.326Z,1.62
2019-03-20T07:04:05.297Z,1.74
2019-03-20T07:05:05.290Z,1.71
2019-03-20T07:06:05.296Z,1.91
2019-03-20T07:07:05.263Z,2.06
2019-03-20T07:08:05.269Z,2.14
2019-03-20T07:09:05.248Z,2.30
2019-03-20T07:10:05.229Z,2.30
2019-03-20T07:11:05.240Z,2.45
2019-03-20T07:12:05.214Z,2.55
2019-03-20T07:13:05.202Z,2.65
2019-03-20T07:14:05.197Z,2.69
2019-03-20T07:15:05.186Z,2.76
2019-03-20T07:16:05.288Z,3.00
2019-03-20T07:17:05.157Z,2.96
2019-03-20T07:18:05.147Z,3.22
2019-03-20T07:19:05.155Z,3.32
2019-03-20T07:20:05.141Z,3.33
2019-03-20T07:21:05.135Z,3.44
2019-03-20T07:22:05.125Z,3.59
2019-03-20T07:23:05.096Z,3.90
2019-03-20T07:24:05.085Z,4.71
2019-03-20T07:25:05.075Z,5.93
2019-03-20T07:26:05.078Z,6.82
2019-03-20T07:27:05.097Z,7.69
2019-03-20T07:28:05.043Z,8.35
2019-03-20T07:29:05.039Z,9.12
2019-03-20T07:30:05.025Z,9.69
2019-03-20T07:31:14.715Z,10.24
2019-03-20T07:32:06.040Z,10.85
2019-03-20T07:33:04.995Z,11.15
2019-03-20T07:34:04.983Z,11.74
2019-03-20T07:35:04.966Z,12.15
2019-03-20T07:36:04.984Z,12.77
2019-03-20T07:37:04.947Z,13.14
2019-03-20T07:38:04.938Z,13.79
2019-03-20T07:39:04.933Z,14.16
2019-03-20T07:40:04.929Z,14.59
2019-03-20T07:41:04.903Z,14.64
2019-03-20T07:42:04.907Z,14.90
2019-03-20T07:43:08.955Z,15.11
2019-03-20T07:44:04.869Z,15.54
2019-03-20T07:45:04.863Z,16.08
2019-03-20T07:46:04.858Z,16.61
2019-03-20T07:47:04.942Z,16.88
2019-03-20T07:48:04.834Z,17.27
2019-03-20T07:49:04.825Z,17.56
2019-03-20T07:50:04.811Z,17.94
2019-03-20T07:51:04.794Z,18.41
2019-03-20T07:52:04.816Z,18.43
2019-03-20T07:53:04.778Z,18.57
2019-03-20T07:54:04.769Z,18.71
2019-03-20T07:55:04.757Z,18.61
2019-03-20T07:56:04.746Z,18.58
2019-03-20T07:57:04.741Z,18.43
2019-03-20T07:58:04.722Z,18.41
2019-03-20T07:59:04.719Z,18.46
2019-03-20T08:00:04.698Z,18.64
2019-03-20T08:01:04.686Z,18.67
2019-03-20T08:02:04.696Z,18.81
2019-03-20T08:03:04.664Z,19.07
2019-03-20T08:04:04.665Z,19.50
2019-03-20T08:05:04.652Z,19.71
2019-03-20T08:06:04.672Z,19.93
2019-03-20T08:07:04.638Z,19.99
2019-03-20T08:08:07.590Z,20.17
2019-03-20T08:09:04.606Z,20.14
2019-03-20T08:10:04.601Z,20.17
2019-03-20T08:11:04.582Z,20.36
2019-03-20T08:12:04.606Z,20.61
2019-03-20T08:13:04.563Z,20.42
2019-03-20T08:14:04.566Z,20.25
2019-03-20T08:15:04.546Z,20.55
2019-03-20T08:16:04.542Z,20.65
2019-03-20T08:17:04.525Z,20.49
2019-03-20T08:18:04.522Z,20.27
2019-03-20T08:19:04.529Z,20.30
2019-03-20T08:20:04.488Z,20.37
2019-03-20T08:21:04.478Z,20.27
2019-03-20T08:22:04.463Z,20.34
2019-03-20T08:23:04.467Z,20.27
2019-03-20T08:24:04.475Z,20.32
2019-03-20T08:25:04.433Z,20.39
2019-03-20T08:26:04.425Z,20.25
2019-03-20T08:27:04.437Z,20.30
2019-03-20T08:28:04.423Z,20.37
2019-03-20T08:29:04.393Z,20.29
2019-03-20T08:30:04.380Z,20.22
2019-03-20T08:31:04.374Z,20.11
2019-03-20T08:32:04.367Z,19.75
2019-03-20T08:33:04.399Z,19.89
2019-03-20T08:34:04.347Z,19.71
2019-03-20T08:35:04.322Z,19.74
2019-03-20T08:36:04.336Z,19.68
2019-03-20T08:37:04.352Z,19.67
2019-03-20T08:38:04.313Z,19.57
2019-03-20T08:39:04.287Z,19.26
2019-03-20T08:40:04.280Z,18.96
2019-03-20T08:41:04.259Z,18.61
2019-03-20T08:42:04.264Z,18.56
2019-03-20T08:43:04.393Z,18.26
2019-03-20T08:44:04.245Z,17.81
2019-03-20T08:45:04.241Z,17.37
2019-03-20T08:46:04.320Z,16.84
2019-03-20T08:47:04.199Z,16.54
2019-03-20T08:48:04.210Z,16.25
2019-03-20T08:49:04.297Z,16.13
2019-03-20T08:50:04.176Z,15.83
2019-03-20T08:51:04.171Z,15.47
2019-03-20T08:52:04.168Z,15.43
2019-03-20T08:53:04.148Z,15.78
2019-03-20T08:54:04.123Z,15.78
2019-03-20T08:55:04.118Z,15.81
2019-03-20T08:56:04.103Z,15.54
2019-03-20T08:57:04.099Z,15.26
2019-03-20T08:58:04.105Z,14.90
2019-03-20T08:59:04.073Z,14.66
2019-03-20T09:00:04.059Z,14.64
2019-03-20T09:01:04.053Z,14.59
2019-03-20T09:02:04.036Z,14.49
2019-03-20T09:03:04.038Z,14.40
2019-03-20T09:04:04.020Z,14.22
2019-03-20T09:05:04.008Z,14.11
2019-03-20T09:06:04.005Z,14.03
2019-03-20T09:07:03.980Z,14.05
2019-03-20T09:08:04.006Z,14.03
2019-03-20T09:09:03.959Z,13.88
2019-03-20T09:10:03.952Z,13.75
2019-03-20T09:11:03.949Z,13.68
2019-03-20T09:12:03.941Z,13.64
2019-03-20T09:13:03.928Z,13.67
2019-03-20T09:14:03.961Z,13.83
2019-03-20T09:15:03.890Z,14.03
2019-03-20T09:16:03.884Z,14.36
2019-03-20T09:17:03.919Z,14.55
2019-03-20T09:18:03.895Z,14.89
2019-03-20T09:19:03.857Z,15.27
2019-03-20T09:20:03.841Z,15.52
2019-03-20T09:21:03.832Z,15.36
2019-03-20T09:22:03.818Z,14.89
2019-03-20T09:23:03.816Z,14.66
2019-03-20T09:24:03.858Z,14.53
2019-03-20T09:25:03.802Z,14.40
2019-03-20T09:26:03.782Z,14.30
2019-03-20T09:27:03.769Z,14.26
2019-03-20T09:28:03.800Z,14.41
2019-03-20T09:29:03.776Z,14.52
2019-03-20T09:30:03.733Z,14.33
2019-03-20T09:31:03.733Z,14.03
2019-03-20T09:32:03.722Z,14.09
2019-03-20T09:33:03.696Z,14.37
2019-03-20T09:34:03.799Z,14.90
2019-03-20T09:35:03.690Z,15.25
2019-03-20T09:36:03.666Z,15.48
2019-03-20T09:37:03.663Z,15.72
2019-03-20T09:38:03.659Z,15.51
2019-03-20T09:39:03.662Z,15.19
2019-03-20T09:40:03.629Z,14.97
2019-03-20T09:41:03.630Z,14.95
2019-03-20T09:42:03.615Z,15.05
2019-03-20T09:43:03.656Z,14.86
2019-03-20T09:44:03.606Z,14.64
2019-03-20T09:45:03.580Z,14.58
2019-03-20T09:46:03.564Z,14.59
2019-03-20T09:47:03.559Z,15.04
2019-03-20T09:48:03.556Z,15.17
2019-03-20T09:49:03.543Z,15.38
2019-03-20T09:50:03.523Z,15.20
2019-03-20T09:51:03.511Z,15.29
2019-03-20T09:52:03.501Z,15.33
2019-03-20T09:53:03.485Z,15.51
2019-03-20T09:54:03.508Z,15.78
2019-03-20T09:55:03.463Z,15.54
2019-03-20T09:56:03.449Z,15.56
2019-03-20T09:57:03.443Z,15.98
2019-03-20T09:58:11.167Z,16.47
2019-03-20T09:59:04.431Z,16.80
2019-03-20T10:00:03.408Z,17.37
2019-03-20T10:01:03.403Z,17.91
2019-03-20T10:02:03.464Z,18.41
2019-03-20T10:03:03.385Z,18.83
2019-03-20T10:04:03.377Z,18.48
2019-03-20T10:05:03.359Z,18.03
2019-03-20T10:06:03.373Z,17.73
2019-03-20T10:07:03.343Z,17.65
2019-03-20T10:08:03.329Z,17.66
2019-03-20T10:09:03.328Z,17.50
2019-03-20T10:10:03.307Z,17.47
2019-03-20T10:11:03.293Z,17.62
2019-03-20T10:12:03.308Z,17.75
2019-03-20T10:13:03.277Z,17.71
2019-03-20T10:14:03.275Z,17.87
2019-03-20T10:15:03.321Z,18.06
2019-03-20T10:16:03.243Z,18.21
2019-03-20T10:17:03.235Z,18.34
2019-03-20T10:18:03.219Z,18.02
2019-03-20T10:19:03.226Z,18.21
2019-03-20T10:20:03.195Z,18.39
2019-03-20T10:21:03.188Z,18.48
2019-03-20T10:22:03.188Z,18.39
2019-03-20T10:23:03.209Z,18.23
2019-03-20T10:24:03.239Z,18.33
2019-03-20T10:25:03.162Z,18.41
2019-03-20T10:26:03.228Z,18.89
2019-03-20T10:27:03.138Z,19.22
2019-03-20T10:28:03.105Z,18.91
2019-03-20T10:29:03.117Z,18.49
2019-03-20T10:30:03.090Z,17.72
2019-03-20T10:31:03.091Z,17.27
2019-03-20T10:32:03.063Z,17.07
2019-03-20T10:33:03.054Z,16.95
2019-03-20T10:34:03.066Z,17.12
2019-03-20T10:35:03.052Z,17.16
2019-03-20T10:36:03.016Z,17.20
2019-03-20T10:37:03.023Z,17.34
2019-03-20T10:38:02.994Z,17.57
2019-03-20T10:39:06.774Z,17.83
2019-03-20T10:40:02.977Z,18.01
2019-03-20T10:41:02.984Z,18.20
2019-03-20T10:42:02.951Z,18.01
2019-03-20T10:43:02.943Z,17.57
2019-03-20T10:44:02.957Z,17.43
2019-03-20T10:45:02.937Z,17.41
2019-03-20T10:46:02.960Z,17.63
2019-03-20T10:47:02.898Z,17.76
2019-03-20T10:48:02.888Z,17.71
2019-03-20T10:49:02.910Z,17.49
2019-03-20T10:50:02.874Z,17.81
2019-03-20T10:51:02.860Z,17.57
2019-03-20T10:52:02.851Z,17.47
2019-03-20T10:53:02.843Z,17.43
2019-03-20T10:54:02.870Z,17.39
2019-03-20T10:55:02.824Z,17.04
2019-03-20T10:56:02.798Z,17.01
2019-03-20T10:57:02.812Z,17.01
2019-03-20T10:58:02.782Z,16.99
2019-03-20T10:59:02.785Z,17.13
2019-03-20T11:00:02.792Z,17.16
2019-03-20T11:01:02.810Z,17.10
2019-03-20T11:02:02.822Z,17.04
2019-03-20T11:03:02.737Z,17.19
2019-03-20T11:04:02.741Z,17.52
2019-03-20T11:05:02.729Z,17.43
2019-03-20T11:06:02.696Z,17.35
2019-03-20T11:07:02.697Z,17.25
2019-03-20T11:08:02.689Z,17.38
2019-03-20T11:09:02.744Z,17.56
2019-03-20T11:10:02.692Z,17.62
2019-03-20T11:11:02.656Z,17.71
2019-03-20T11:12:02.627Z,17.88
2019-03-20T11:13:02.633Z,17.84
2019-03-20T11:14:02.690Z,17.46
2019-03-20T11:15:02.593Z,17.45
2019-03-20T11:16:02.585Z,17.45
2019-03-20T11:17:02.582Z,17.65
2019-03-20T11:18:02.562Z,17.84
2019-03-20T11:19:02.644Z,18.36
2019-03-20T11:20:02.557Z,18.68
2019-03-20T11:21:02.542Z,19.12
2019-03-20T11:22:02.534Z,19.59
2019-03-20T11:23:02.524Z,19.77
2019-03-20T11:24:02.530Z,19.72
2019-03-20T11:25:02.491Z,19.74
2019-03-20T11:26:02.520Z,19.26
2019-03-20T11:27:02.493Z,19.17
2019-03-20T11:28:02.482Z,18.96
2019-03-20T11:29:02.470Z,18.85
2019-03-20T11:30:02.458Z,18.61
2019-03-20T11:31:02.427Z,18.36
2019-03-20T11:32:02.434Z,18.24
2019-03-20T11:33:02.410Z,18.26
2019-03-20T11:34:02.541Z,17.88
2019-03-20T11:35:02.401Z,17.94
2019-03-20T11:36:02.375Z,18.08
2019-03-20T11:37:02.371Z,18.13
2019-03-20T11:38:02.392Z,18.13
2019-03-20T11:39:02.383Z,17.91
2019-03-20T11:40:02.347Z,17.65
2019-03-20T11:41:02.323Z,17.38
2019-03-20T11:42:02.321Z,17.14
2019-03-20T11:43:02.302Z,17.20
2019-03-20T11:44:02.356Z,17.57
2019-03-20T11:45:02.290Z,18.31
2019-03-20T11:46:02.284Z,18.86
2019-03-20T11:47:02.277Z,19.35
2019-03-20T11:48:02.247Z,19.75
2019-03-20T11:49:02.263Z,20.12
2019-03-20T11:50:02.226Z,20.08
2019-03-20T11:51:02.237Z,19.67
2019-03-20T11:52:02.212Z,19.74
2019-03-20T11:53:02.207Z,19.97
2019-03-20T11:54:02.243Z,20.08
2019-03-20T11:55:02.213Z,20.41
2019-03-20T11:56:02.161Z,20.36
2019-03-20T11:57:02.151Z,20.23
2019-03-20T11:58:02.236Z,19.68
2019-03-20T11:59:02.135Z,19.49
2019-03-20T12:00:02.172Z,19.20
2019-03-20T12:01:02.108Z,19.09
2019-03-20T12:02:02.130Z,18.91
2019-03-20T12:03:02.090Z,18.94
2019-03-20T12:04:02.115Z,19.07
2019-03-20T12:05:02.083Z,18.97
2019-03-20T12:06:02.059Z,19.19
2019-03-20T12:07:02.047Z,19.26
2019-03-20T12:08:02.041Z,19.26
2019-03-20T12:09:02.034Z,19.22
2019-03-20T12:10:02.037Z,19.23
2019-03-20T12:11:02.028Z,19.44
2019-03-20T12:12:02.010Z,19.20
2019-03-20T12:13:01.989Z,19.22
2019-03-20T12:14:01.973Z,19.41
2019-03-20T12:15:02.042Z,19.39
2019-03-20T12:16:01.974Z,19.47
2019-03-20T12:17:01.950Z,19.63
2019-03-20T12:18:01.934Z,19.75
2019-03-20T12:19:01.928Z,19.86
2019-03-20T12:20:01.939Z,19.57
2019-03-20T12:21:01.905Z,19.23
2019-03-20T12:22:01.897Z,18.97
2019-03-20T12:23:01.926Z,19.08
2019-03-20T12:24:01.874Z,19.19
2019-03-20T12:25:01.876Z,19.12
2019-03-20T12:26:01.867Z,19.24
2019-03-20T12:27:01.894Z,19.37
2019-03-20T12:28:01.827Z,19.22
2019-03-20T12:29:01.827Z,19.22
2019-03-20T12:30:01.835Z,19.50
2019-03-20T12:31:01.809Z,19.19
2019-03-20T12:32:01.797Z,19.07
2019-03-20T12:33:01.784Z,18.97
2019-03-20T12:34:02.350Z,19.07
2019-03-20T12:35:01.772Z,19.32
2019-03-20T12:36:01.774Z,19.60
2019-03-20T12:37:01.740Z,19.68
2019-03-20T12:38:13.350Z,19.90
2019-03-20T12:39:02.723Z,19.94
2019-03-20T12:40:01.732Z,19.82
2019-03-20T12:41:01.711Z,19.74
2019-03-20T12:42:01.741Z,19.63
2019-03-20T12:43:01.683Z,19.35
2019-03-20T12:44:01.663Z,19.24
2019-03-20T12:45:01.702Z,19.17
2019-03-20T12:46:01.636Z,19.12
2019-03-20T12:47:01.667Z,18.91
2019-03-20T12:48:01.619Z,18.91
2019-03-20T12:49:01.610Z,19.19
2019-03-20T12:50:01.611Z,18.88
2019-03-20T12:51:01.585Z,18.82
2019-03-20T12:52:01.588Z,18.75
2019-03-20T12:53:02.156Z,18.58
2019-03-20T12:54:01.559Z,18.45